sensor_id;sensor_type;location;lat;lon;timestamp;P1;durP1;ratioP1;P2;durP2;ratioP2
69323;SDS011;56470;47.350;8.718;2022-11-04T00:01:04;1.65;;;0.77;;
69323;SDS011;56470;47.350;8.718;2022-11-04T00:03:30;1.00;;;0.73;;
69323;SDS011;56470;47.350;8.718;2022-11-04T00:05:59;1.17;;;1.00;;
69323;SDS011;56470;47.350;8.718;2022-11-04T00:08:25;0.85;;;0.65;;
69323;SDS011;56470;47.350;8.718;2022-11-04T00:10:54;1.10;;;1.00;;
69323;SDS011;56470;47.350;8.718;2022-11-04T00:13:42;1.10;;;0.82;;
69323;SDS011;56470;47.350;8.718;2022-11-04T00:16:07;0.77;;;0.60;;
69323;SDS011;56470;47.350;8.718;2022-11-04T00:18:51;1.13;;;0.60;;
69323;SDS011;56470;47.350;8.718;2022-11-04T00:21:17;1.35;;;0.60;;
69323;SDS011;56470;47.350;8.718;2022-11-04T00:24:02;1.00;;;0.60;;
69323;SDS011;56470;47.350;8.718;2022-11-04T00:26:47;1.23;;;1.13;;
69323;SDS011;56470;47.350;8.718;2022-11-04T00:29:34;0.90;;;0.80;;
69323;SDS011;56470;47.350;8.718;2022-11-04T00:31:59;0.82;;;0.65;;
69323;SDS011;56470;47.350;8.718;2022-11-04T00:34:46;0.73;;;0.57;;
69323;SDS011;56470;47.350;8.718;2022-11-04T00:37:11;1.10;;;1.00;;
69323;SDS011;56470;47.350;8.718;2022-11-04T00:39:37;1.40;;;1.10;;
69323;SDS011;56470;47.350;8.718;2022-11-04T00:42:05;1.10;;;0.70;;
69323;SDS011;56470;47.350;8.718;2022-11-04T00:44:30;0.90;;;0.80;;
69323;SDS011;56470;47.350;8.718;2022-11-04T00:46:56;0.90;;;0.80;;
69323;SDS011;56470;47.350;8.718;2022-11-04T00:49:21;0.90;;;0.70;;
69323;SDS011;56470;47.350;8.718;2022-11-04T00:51:47;1.13;;;0.80;;
69323;SDS011;56470;47.350;8.718;2022-11-04T00:54:13;1.27;;;0.80;;
69323;SDS011;56470;47.350;8.718;2022-11-04T00:56:39;1.00;;;0.77;;
69323;SDS011;56470;47.350;8.718;2022-11-04T00:59:05;1.33;;;0.80;;
69323;SDS011;56470;47.350;8.718;2022-11-04T01:01:31;1.02;;;0.80;;
69323;SDS011;56470;47.350;8.718;2022-11-04T01:03:56;1.37;;;0.80;;
69323;SDS011;56470;47.350;8.718;2022-11-04T01:06:23;1.10;;;0.60;;
69323;SDS011;56470;47.350;8.718;2022-11-04T01:08:56;1.70;;;0.88;;
69323;SDS011;56470;47.350;8.718;2022-11-04T01:11:23;0.97;;;0.50;;
69323;SDS011;56470;47.350;8.718;2022-11-04T01:13:50;1.05;;;0.75;;
69323;SDS011;56470;47.350;8.718;2022-11-04T01:16:16;1.45;;;0.93;;
69323;SDS011;56470;47.350;8.718;2022-11-04T01:18:42;1.25;;;0.80;;
69323;SDS011;56470;47.350;8.718;2022-11-04T01:21:09;1.20;;;0.80;;
69323;SDS011;56470;47.350;8.718;2022-11-04T01:23:36;0.85;;;0.55;;
69323;SDS011;56470;47.350;8.718;2022-11-04T01:26:04;0.90;;;0.80;;
69323;SDS011;56470;47.350;8.718;2022-11-04T01:28:32;1.57;;;0.90;;
69323;SDS011;56470;47.350;8.718;2022-11-04T01:30:57;1.35;;;0.70;;
69323;SDS011;56470;47.350;8.718;2022-11-04T01:33:24;1.42;;;0.77;;
69323;SDS011;56470;47.350;8.718;2022-11-04T01:35:52;1.10;;;0.90;;
69323;SDS011;56470;47.350;8.718;2022-11-04T01:38:17;1.58;;;0.90;;
69323;SDS011;56470;47.350;8.718;2022-11-04T01:40:43;1.35;;;0.70;;
69323;SDS011;56470;47.350;8.718;2022-11-04T01:43:16;1.57;;;1.10;;
69323;SDS011;56470;47.350;8.718;2022-11-04T01:45:43;1.63;;;0.70;;
69323;SDS011;56470;47.350;8.718;2022-11-04T01:48:14;1.08;;;0.50;;
69323;SDS011;56470;47.350;8.718;2022-11-04T01:50:44;2.17;;;0.90;;
69323;SDS011;56470;47.350;8.718;2022-11-04T01:53:11;1.17;;;0.67;;
69323;SDS011;56470;47.350;8.718;2022-11-04T01:55:49;1.00;;;0.80;;
69323;SDS011;56470;47.350;8.718;2022-11-04T01:58:23;1.40;;;0.90;;
69323;SDS011;56470;47.350;8.718;2022-11-04T02:00:55;1.65;;;0.70;;
69323;SDS011;56470;47.350;8.718;2022-11-04T02:03:55;0.98;;;0.80;;
69323;SDS011;56470;47.350;8.718;2022-11-04T02:07:07;0.90;;;0.60;;
69323;SDS011;56470;47.350;8.718;2022-11-04T02:10:12;1.02;;;0.80;;
69323;SDS011;56470;47.350;8.718;2022-11-04T02:13:02;1.65;;;0.80;;
69323;SDS011;56470;47.350;8.718;2022-11-04T02:46:36;1.20;;;0.88;;
69323;SDS011;56470;47.350;8.718;2022-11-04T02:49:30;1.20;;;0.73;;
69323;SDS011;56470;47.350;8.718;2022-11-04T02:52:38;0.90;;;0.50;;
69323;SDS011;56470;47.350;8.718;2022-11-04T02:55:14;1.63;;;0.80;;
69323;SDS011;56470;47.350;8.718;2022-11-04T03:01:34;1.00;;;0.77;;
69323;SDS011;56470;47.350;8.718;2022-11-04T03:04:13;1.10;;;0.80;;
69323;SDS011;56470;47.350;8.718;2022-11-04T03:07:14;1.53;;;1.03;;
69323;SDS011;56470;47.350;8.718;2022-11-04T03:10:29;1.13;;;0.70;;
69323;SDS011;56470;47.350;8.718;2022-11-04T03:16:49;0.90;;;0.70;;
69323;SDS011;56470;47.350;8.718;2022-11-04T03:22:14;1.00;;;0.83;;
69323;SDS011;56470;47.350;8.718;2022-11-04T03:24:43;1.42;;;0.98;;
69323;SDS011;56470;47.350;8.718;2022-11-04T03:30:21;1.20;;;0.52;;
69323;SDS011;56470;47.350;8.718;2022-11-04T03:36:27;1.27;;;0.90;;
69323;SDS011;56470;47.350;8.718;2022-11-04T03:38:54;1.30;;;0.80;;
69323;SDS011;56470;47.350;8.718;2022-11-04T03:41:28;0.90;;;0.60;;
69323;SDS011;56470;47.350;8.718;2022-11-04T03:44:16;1.00;;;0.70;;
69323;SDS011;56470;47.350;8.718;2022-11-04T03:46:42;1.08;;;0.70;;
69323;SDS011;56470;47.350;8.718;2022-11-04T03:49:13;1.50;;;1.00;;
69323;SDS011;56470;47.350;8.718;2022-11-04T03:51:42;0.67;;;0.40;;
69323;SDS011;56470;47.350;8.718;2022-11-04T03:54:09;0.77;;;0.60;;
69323;SDS011;56470;47.350;8.718;2022-11-04T04:02:21;1.10;;;0.80;;
69323;SDS011;56470;47.350;8.718;2022-11-04T04:04:59;1.20;;;0.70;;
69323;SDS011;56470;47.350;8.718;2022-11-04T04:10:11;1.13;;;0.80;;
69323;SDS011;56470;47.350;8.718;2022-11-04T04:13:06;2.15;;;1.00;;
69323;SDS011;56470;47.350;8.718;2022-11-04T04:15:49;1.27;;;0.65;;
69323;SDS011;56470;47.350;8.718;2022-11-04T04:18:29;1.00;;;0.82;;
69323;SDS011;56470;47.350;8.718;2022-11-04T04:20:59;1.10;;;0.73;;
69323;SDS011;56470;47.350;8.718;2022-11-04T04:23:30;1.17;;;0.60;;
69323;SDS011;56470;47.350;8.718;2022-11-04T04:26:16;1.50;;;0.70;;
69323;SDS011;56470;47.350;8.718;2022-11-04T04:29:03;1.00;;;0.60;;
69323;SDS011;56470;47.350;8.718;2022-11-04T04:31:31;1.17;;;0.65;;
69323;SDS011;56470;47.350;8.718;2022-11-04T04:34:22;1.10;;;0.50;;
69323;SDS011;56470;47.350;8.718;2022-11-04T04:39:49;1.30;;;0.60;;
69323;SDS011;56470;47.350;8.718;2022-11-04T04:42:36;1.02;;;0.73;;
69323;SDS011;56470;47.350;8.718;2022-11-04T04:45:24;0.93;;;0.75;;
69323;SDS011;56470;47.350;8.718;2022-11-04T04:47:55;1.53;;;0.87;;
69323;SDS011;56470;47.350;8.718;2022-11-04T04:50:21;1.00;;;0.60;;
69323;SDS011;56470;47.350;8.718;2022-11-04T04:52:47;1.10;;;0.70;;
69323;SDS011;56470;47.350;8.718;2022-11-04T04:55:16;0.90;;;0.77;;
69323;SDS011;56470;47.350;8.718;2022-11-04T04:57:41;1.05;;;0.77;;
69323;SDS011;56470;47.350;8.718;2022-11-04T05:00:08;1.42;;;0.65;;
69323;SDS011;56470;47.350;8.718;2022-11-04T05:02:37;0.73;;;0.63;;
69323;SDS011;56470;47.350;8.718;2022-11-04T05:05:02;1.52;;;0.63;;
69323;SDS011;56470;47.350;8.718;2022-11-04T05:07:29;0.60;;;0.40;;
69323;SDS011;56470;47.350;8.718;2022-11-04T05:09:55;1.67;;;0.83;;
69323;SDS011;56470;47.350;8.718;2022-11-04T05:12:20;1.10;;;0.90;;
69323;SDS011;56470;47.350;8.718;2022-11-04T05:14:46;1.03;;;0.70;;
69323;SDS011;56470;47.350;8.718;2022-11-04T05:17:13;1.13;;;0.60;;
69323;SDS011;56470;47.350;8.718;2022-11-04T05:19:38;0.87;;;0.60;;
69323;SDS011;56470;47.350;8.718;2022-11-04T05:22:04;1.20;;;0.77;;
69323;SDS011;56470;47.350;8.718;2022-11-04T05:24:29;0.90;;;0.60;;
69323;SDS011;56470;47.350;8.718;2022-11-04T05:26:55;1.10;;;0.90;;
69323;SDS011;56470;47.350;8.718;2022-11-04T05:29:20;0.97;;;0.87;;
69323;SDS011;56470;47.350;8.718;2022-11-04T05:31:48;1.73;;;1.20;;
69323;SDS011;56470;47.350;8.718;2022-11-04T05:34:13;0.90;;;0.73;;
69323;SDS011;56470;47.350;8.718;2022-11-04T05:36:39;1.05;;;0.80;;
69323;SDS011;56470;47.350;8.718;2022-11-04T05:39:05;1.10;;;0.88;;
69323;SDS011;56470;47.350;8.718;2022-11-04T05:41:31;1.13;;;0.73;;
69323;SDS011;56470;47.350;8.718;2022-11-04T05:43:58;1.30;;;0.80;;
69323;SDS011;56470;47.350;8.718;2022-11-04T05:46:25;1.50;;;0.90;;
69323;SDS011;56470;47.350;8.718;2022-11-04T05:48:51;1.88;;;1.00;;
69323;SDS011;56470;47.350;8.718;2022-11-04T05:51:18;1.23;;;0.90;;
69323;SDS011;56470;47.350;8.718;2022-11-04T05:53:45;1.00;;;0.80;;
69323;SDS011;56470;47.350;8.718;2022-11-04T05:56:11;1.10;;;0.80;;
69323;SDS011;56470;47.350;8.718;2022-11-04T05:58:36;1.10;;;0.80;;
69323;SDS011;56470;47.350;8.718;2022-11-04T06:03:51;1.27;;;1.00;;
69323;SDS011;56470;47.350;8.718;2022-11-04T06:06:17;2.17;;;1.00;;
69323;SDS011;56470;47.350;8.718;2022-11-04T06:08:43;1.35;;;1.17;;
69323;SDS011;56470;47.350;8.718;2022-11-04T06:11:09;1.40;;;1.00;;
69323;SDS011;56470;47.350;8.718;2022-11-04T06:13:34;1.40;;;0.70;;
69323;SDS011;56470;47.350;8.718;2022-11-04T06:15:59;1.77;;;1.03;;
69323;SDS011;56470;47.350;8.718;2022-11-04T06:18:24;1.57;;;1.17;;
69323;SDS011;56470;47.350;8.718;2022-11-04T06:20:52;1.43;;;0.97;;
69323;SDS011;56470;47.350;8.718;2022-11-04T06:23:34;1.30;;;0.98;;
69323;SDS011;56470;47.350;8.718;2022-11-04T06:25:59;1.07;;;0.90;;
69323;SDS011;56470;47.350;8.718;2022-11-04T06:28:24;1.80;;;0.70;;
69323;SDS011;56470;47.350;8.718;2022-11-04T06:30:50;1.70;;;1.30;;
69323;SDS011;56470;47.350;8.718;2022-11-04T06:33:16;1.83;;;1.35;;
69323;SDS011;56470;47.350;8.718;2022-11-04T06:35:42;1.50;;;1.00;;
69323;SDS011;56470;47.350;8.718;2022-11-04T06:38:07;2.07;;;1.00;;
69323;SDS011;56470;47.350;8.718;2022-11-04T06:40:32;1.80;;;0.80;;
69323;SDS011;56470;47.350;8.718;2022-11-04T06:42:58;2.30;;;1.30;;
69323;SDS011;56470;47.350;8.718;2022-11-04T06:45:23;1.30;;;0.90;;
69323;SDS011;56470;47.350;8.718;2022-11-04T06:47:48;2.00;;;1.30;;
69323;SDS011;56470;47.350;8.718;2022-11-04T06:50:14;1.70;;;0.93;;
69323;SDS011;56470;47.350;8.718;2022-11-04T06:52:39;2.33;;;1.13;;
69323;SDS011;56470;47.350;8.718;2022-11-04T06:55:05;1.63;;;0.90;;
69323;SDS011;56470;47.350;8.718;2022-11-04T06:57:31;2.13;;;1.00;;
69323;SDS011;56470;47.350;8.718;2022-11-04T06:59:56;2.80;;;0.90;;
69323;SDS011;56470;47.350;8.718;2022-11-04T07:02:21;1.77;;;1.03;;
69323;SDS011;56470;47.350;8.718;2022-11-04T07:04:46;3.13;;;1.40;;
69323;SDS011;56470;47.350;8.718;2022-11-04T07:07:12;1.70;;;0.80;;
69323;SDS011;56470;47.350;8.718;2022-11-04T07:09:38;1.70;;;1.07;;
69323;SDS011;56470;47.350;8.718;2022-11-04T07:12:03;2.08;;;1.17;;
69323;SDS011;56470;47.350;8.718;2022-11-04T07:14:29;2.40;;;1.17;;
69323;SDS011;56470;47.350;8.718;2022-11-04T07:16:55;2.55;;;1.33;;
69323;SDS011;56470;47.350;8.718;2022-11-04T07:19:20;2.40;;;1.50;;
69323;SDS011;56470;47.350;8.718;2022-11-04T07:21:45;1.13;;;0.80;;
69323;SDS011;56470;47.350;8.718;2022-11-04T07:24:11;2.07;;;1.47;;
69323;SDS011;56470;47.350;8.718;2022-11-04T07:26:36;1.80;;;1.30;;
69323;SDS011;56470;47.350;8.718;2022-11-04T07:29:02;2.60;;;1.50;;
69323;SDS011;56470;47.350;8.718;2022-11-04T07:31:27;2.27;;;1.23;;
69323;SDS011;56470;47.350;8.718;2022-11-04T07:33:52;2.05;;;1.17;;
69323;SDS011;56470;47.350;8.718;2022-11-04T07:36:18;2.67;;;1.40;;
69323;SDS011;56470;47.350;8.718;2022-11-04T07:38:44;3.13;;;1.50;;
69323;SDS011;56470;47.350;8.718;2022-11-04T07:41:10;4.75;;;1.40;;
69323;SDS011;56470;47.350;8.718;2022-11-04T07:43:36;2.03;;;0.98;;
69323;SDS011;56470;47.350;8.718;2022-11-04T07:46:03;2.60;;;1.47;;
69323;SDS011;56470;47.350;8.718;2022-11-04T07:48:30;1.80;;;0.80;;
69323;SDS011;56470;47.350;8.718;2022-11-04T07:50:56;1.20;;;0.73;;
69323;SDS011;56470;47.350;8.718;2022-11-04T07:53:24;1.58;;;0.93;;
69323;SDS011;56470;47.350;8.718;2022-11-04T07:55:50;2.53;;;1.35;;
69323;SDS011;56470;47.350;8.718;2022-11-04T07:58:17;2.80;;;1.00;;
69323;SDS011;56470;47.350;8.718;2022-11-04T08:00:43;2.45;;;1.42;;
69323;SDS011;56470;47.350;8.718;2022-11-04T08:03:08;1.90;;;1.10;;
69323;SDS011;56470;47.350;8.718;2022-11-04T08:05:33;2.90;;;1.50;;
69323;SDS011;56470;47.350;8.718;2022-11-04T08:07:59;1.50;;;0.98;;
69323;SDS011;56470;47.350;8.718;2022-11-04T08:10:25;2.33;;;1.20;;
69323;SDS011;56470;47.350;8.718;2022-11-04T08:12:50;2.10;;;1.40;;
69323;SDS011;56470;47.350;8.718;2022-11-04T08:15:16;1.73;;;1.00;;
69323;SDS011;56470;47.350;8.718;2022-11-04T08:17:41;1.57;;;0.93;;
69323;SDS011;56470;47.350;8.718;2022-11-04T08:20:07;3.20;;;1.20;;
69323;SDS011;56470;47.350;8.718;2022-11-04T08:22:33;2.65;;;1.45;;
69323;SDS011;56470;47.350;8.718;2022-11-04T08:25:02;2.40;;;1.37;;
69323;SDS011;56470;47.350;8.718;2022-11-04T08:27:29;2.45;;;1.00;;
69323;SDS011;56470;47.350;8.718;2022-11-04T08:29:54;2.33;;;1.30;;
69323;SDS011;56470;47.350;8.718;2022-11-04T08:32:19;2.30;;;1.20;;
69323;SDS011;56470;47.350;8.718;2022-11-04T08:34:45;3.00;;;1.40;;
69323;SDS011;56470;47.350;8.718;2022-11-04T08:37:13;2.93;;;1.70;;
69323;SDS011;56470;47.350;8.718;2022-11-04T08:39:40;2.00;;;1.50;;
69323;SDS011;56470;47.350;8.718;2022-11-04T08:42:05;2.23;;;1.47;;
69323;SDS011;56470;47.350;8.718;2022-11-04T08:44:31;2.15;;;1.23;;
69323;SDS011;56470;47.350;8.718;2022-11-04T08:46:58;3.00;;;1.50;;
69323;SDS011;56470;47.350;8.718;2022-11-04T08:49:24;1.60;;;1.00;;
69323;SDS011;56470;47.350;8.718;2022-11-04T08:51:50;2.60;;;1.08;;
69323;SDS011;56470;47.350;8.718;2022-11-04T08:54:21;1.75;;;1.13;;
69323;SDS011;56470;47.350;8.718;2022-11-04T08:56:47;1.87;;;1.00;;
69323;SDS011;56470;47.350;8.718;2022-11-04T08:59:13;2.22;;;1.15;;
69323;SDS011;56470;47.350;8.718;2022-11-04T09:01:39;2.00;;;1.53;;
69323;SDS011;56470;47.350;8.718;2022-11-04T09:04:06;1.98;;;1.42;;
69323;SDS011;56470;47.350;8.718;2022-11-04T09:06:33;2.28;;;1.30;;
69323;SDS011;56470;47.350;8.718;2022-11-04T09:09:00;1.95;;;1.25;;
69323;SDS011;56470;47.350;8.718;2022-11-04T09:11:29;2.60;;;1.20;;
69323;SDS011;56470;47.350;8.718;2022-11-04T09:13:57;2.70;;;1.25;;
69323;SDS011;56470;47.350;8.718;2022-11-04T09:16:23;2.65;;;1.20;;
69323;SDS011;56470;47.350;8.718;2022-11-04T09:18:49;4.73;;;1.67;;
69323;SDS011;56470;47.350;8.718;2022-11-04T09:21:14;2.60;;;1.03;;
69323;SDS011;56470;47.350;8.718;2022-11-04T09:23:39;1.73;;;0.70;;
69323;SDS011;56470;47.350;8.718;2022-11-04T09:26:06;1.70;;;1.30;;
69323;SDS011;56470;47.350;8.718;2022-11-04T09:28:34;2.20;;;0.98;;
69323;SDS011;56470;47.350;8.718;2022-11-04T09:31:03;1.30;;;0.80;;
69323;SDS011;56470;47.350;8.718;2022-11-04T09:33:29;2.40;;;1.60;;
69323;SDS011;56470;47.350;8.718;2022-11-04T09:35:55;1.33;;;0.87;;
69323;SDS011;56470;47.350;8.718;2022-11-04T09:38:21;2.78;;;1.50;;
69323;SDS011;56470;47.350;8.718;2022-11-04T09:40:47;2.20;;;1.30;;
69323;SDS011;56470;47.350;8.718;2022-11-04T09:45:57;2.03;;;1.20;;
69323;SDS011;56470;47.350;8.718;2022-11-04T09:48:24;2.53;;;1.13;;
69323;SDS011;56470;47.350;8.718;2022-11-04T09:50:53;1.92;;;1.15;;
69323;SDS011;56470;47.350;8.718;2022-11-04T09:53:28;2.57;;;1.23;;
69323;SDS011;56470;47.350;8.718;2022-11-04T09:56:01;3.83;;;1.50;;
69323;SDS011;56470;47.350;8.718;2022-11-04T09:58:35;2.20;;;1.00;;
69323;SDS011;56470;47.350;8.718;2022-11-04T10:06:17;2.33;;;1.10;;
69323;SDS011;56470;47.350;8.718;2022-11-04T10:09:05;1.42;;;0.95;;
69323;SDS011;56470;47.350;8.718;2022-11-04T10:26:14;1.38;;;0.98;;
69323;SDS011;56470;47.350;8.718;2022-11-04T10:31:29;1.15;;;0.70;;
69323;SDS011;56470;47.350;8.718;2022-11-04T10:34:02;1.70;;;1.10;;
69323;SDS011;56470;47.350;8.718;2022-11-04T10:36:33;1.40;;;0.88;;
69323;SDS011;56470;47.350;8.718;2022-11-04T10:39:01;2.15;;;1.00;;
69323;SDS011;56470;47.350;8.718;2022-11-04T10:41:36;2.55;;;1.10;;
69323;SDS011;56470;47.350;8.718;2022-11-04T10:44:05;1.10;;;0.80;;
69323;SDS011;56470;47.350;8.718;2022-11-04T10:52:00;1.80;;;0.68;;
69323;SDS011;56470;47.350;8.718;2022-11-04T10:54:26;1.92;;;1.00;;
69323;SDS011;56470;47.350;8.718;2022-11-04T10:56:52;2.03;;;1.10;;
69323;SDS011;56470;47.350;8.718;2022-11-04T10:59:29;2.15;;;0.90;;
69323;SDS011;56470;47.350;8.718;2022-11-04T11:02:41;2.95;;;0.73;;
69323;SDS011;56470;47.350;8.718;2022-11-04T11:05:18;2.75;;;0.90;;
69323;SDS011;56470;47.350;8.718;2022-11-04T11:07:53;2.23;;;0.60;;
69323;SDS011;56470;47.350;8.718;2022-11-04T11:10:27;2.03;;;0.80;;
69323;SDS011;56470;47.350;8.718;2022-11-04T11:13:01;1.67;;;0.95;;
69323;SDS011;56470;47.350;8.718;2022-11-04T11:20:34;1.93;;;0.83;;
69323;SDS011;56470;47.350;8.718;2022-11-04T11:23:02;2.45;;;1.00;;
69323;SDS011;56470;47.350;8.718;2022-11-04T11:25:33;2.45;;;1.27;;
69323;SDS011;56470;47.350;8.718;2022-11-04T11:28:09;2.20;;;1.10;;
69323;SDS011;56470;47.350;8.718;2022-11-04T11:30:53;2.92;;;1.30;;
69323;SDS011;56470;47.350;8.718;2022-11-04T11:33:31;1.63;;;0.80;;
69323;SDS011;56470;47.350;8.718;2022-11-04T11:36:05;2.15;;;0.90;;
69323;SDS011;56470;47.350;8.718;2022-11-04T11:38:53;2.17;;;1.40;;
69323;SDS011;56470;47.350;8.718;2022-11-04T11:41:20;1.85;;;0.75;;
69323;SDS011;56470;47.350;8.718;2022-11-04T11:43:50;2.08;;;1.10;;
69323;SDS011;56470;47.350;8.718;2022-11-04T11:46:21;2.57;;;0.83;;
69323;SDS011;56470;47.350;8.718;2022-11-04T11:48:52;2.63;;;0.90;;
69323;SDS011;56470;47.350;8.718;2022-11-04T11:51:26;1.75;;;0.80;;
69323;SDS011;56470;47.350;8.718;2022-11-04T11:54:02;2.72;;;0.80;;
69323;SDS011;56470;47.350;8.718;2022-11-04T11:56:37;2.97;;;1.10;;
69323;SDS011;56470;47.350;8.718;2022-11-04T11:59:12;2.50;;;1.30;;
69323;SDS011;56470;47.350;8.718;2022-11-04T12:01:44;2.60;;;0.93;;
69323;SDS011;56470;47.350;8.718;2022-11-04T12:04:14;1.25;;;0.85;;
69323;SDS011;56470;47.350;8.718;2022-11-04T12:12:45;2.77;;;0.90;;
69323;SDS011;56470;47.350;8.718;2022-11-04T12:18:21;3.00;;;1.20;;
69323;SDS011;56470;47.350;8.718;2022-11-04T12:26:24;1.30;;;0.73;;
69323;SDS011;56470;47.350;8.718;2022-11-04T12:29:04;2.92;;;1.50;;
69323;SDS011;56470;47.350;8.718;2022-11-04T12:34:26;2.17;;;1.20;;
69323;SDS011;56470;47.350;8.718;2022-11-04T12:40:24;2.47;;;1.07;;
69323;SDS011;56470;47.350;8.718;2022-11-04T12:45:44;2.00;;;1.17;;
69323;SDS011;56470;47.350;8.718;2022-11-04T12:50:49;2.83;;;1.20;;
69323;SDS011;56470;47.350;8.718;2022-11-04T12:56:16;1.98;;;1.05;;
69323;SDS011;56470;47.350;8.718;2022-11-04T12:58:45;1.90;;;0.90;;
69323;SDS011;56470;47.350;8.718;2022-11-04T13:04:13;3.45;;;1.33;;
69323;SDS011;56470;47.350;8.718;2022-11-04T13:06:47;3.15;;;1.08;;
69323;SDS011;56470;47.350;8.718;2022-11-04T13:09:28;2.55;;;1.00;;
69323;SDS011;56470;47.350;8.718;2022-11-04T13:17:04;2.13;;;0.73;;
69323;SDS011;56470;47.350;8.718;2022-11-04T13:19:39;2.05;;;1.40;;
69323;SDS011;56470;47.350;8.718;2022-11-04T13:22:31;2.75;;;1.00;;
69323;SDS011;56470;47.350;8.718;2022-11-04T13:27:34;2.55;;;0.90;;
69323;SDS011;56470;47.350;8.718;2022-11-04T13:30:06;1.87;;;0.90;;
69323;SDS011;56470;47.350;8.718;2022-11-04T13:32:48;2.85;;;1.50;;
69323;SDS011;56470;47.350;8.718;2022-11-04T13:38:13;2.35;;;1.30;;
69323;SDS011;56470;47.350;8.718;2022-11-04T13:46:02;2.42;;;1.58;;
69323;SDS011;56470;47.350;8.718;2022-11-04T13:48:30;2.03;;;1.00;;
69323;SDS011;56470;47.350;8.718;2022-11-04T13:56:36;2.37;;;1.00;;
69323;SDS011;56470;47.350;8.718;2022-11-04T14:04:43;1.60;;;1.00;;
69323;SDS011;56470;47.350;8.718;2022-11-04T14:07:10;3.47;;;1.02;;
69323;SDS011;56470;47.350;8.718;2022-11-04T14:14:34;4.38;;;1.42;;
69323;SDS011;56470;47.350;8.718;2022-11-04T14:17:01;3.03;;;1.23;;
69323;SDS011;56470;47.350;8.718;2022-11-04T14:19:52;1.83;;;0.80;;
69323;SDS011;56470;47.350;8.718;2022-11-04T14:22:28;1.83;;;1.03;;
69323;SDS011;56470;47.350;8.718;2022-11-04T14:24:56;2.35;;;1.42;;
69323;SDS011;56470;47.350;8.718;2022-11-04T14:27:32;2.42;;;0.98;;
69323;SDS011;56470;47.350;8.718;2022-11-04T14:30:03;3.85;;;1.00;;
69323;SDS011;56470;47.350;8.718;2022-11-04T14:32:30;2.40;;;1.52;;
69323;SDS011;56470;47.350;8.718;2022-11-04T14:35:03;2.53;;;1.23;;
69323;SDS011;56470;47.350;8.718;2022-11-04T14:37:32;3.25;;;1.02;;
69323;SDS011;56470;47.350;8.718;2022-11-04T14:39:59;2.80;;;1.40;;
69323;SDS011;56470;47.350;8.718;2022-11-04T14:45:20;3.65;;;1.27;;
69323;SDS011;56470;47.350;8.718;2022-11-04T14:47:50;2.83;;;1.23;;
69323;SDS011;56470;47.350;8.718;2022-11-04T14:50:21;2.80;;;1.27;;
69323;SDS011;56470;47.350;8.718;2022-11-04T14:52:55;3.17;;;1.00;;
69323;SDS011;56470;47.350;8.718;2022-11-04T14:55:26;3.65;;;1.30;;
69323;SDS011;56470;47.350;8.718;2022-11-04T14:57:55;2.17;;;1.23;;
69323;SDS011;56470;47.350;8.718;2022-11-04T15:03:13;4.60;;;1.48;;
69323;SDS011;56470;47.350;8.718;2022-11-04T15:05:46;3.60;;;1.10;;
69323;SDS011;56470;47.350;8.718;2022-11-04T15:08:23;3.03;;;1.58;;
69323;SDS011;56470;47.350;8.718;2022-11-04T15:11:05;3.30;;;1.40;;
69323;SDS011;56470;47.350;8.718;2022-11-04T15:14:12;1.77;;;1.40;;
69323;SDS011;56470;47.350;8.718;2022-11-04T15:16:38;2.03;;;1.27;;
69323;SDS011;56470;47.350;8.718;2022-11-04T15:19:06;3.88;;;1.17;;
69323;SDS011;56470;47.350;8.718;2022-11-04T15:21:40;4.25;;;1.20;;
69323;SDS011;56470;47.350;8.718;2022-11-04T15:24:08;4.00;;;1.47;;
69323;SDS011;56470;47.350;8.718;2022-11-04T15:26:39;2.53;;;1.35;;
69323;SDS011;56470;47.350;8.718;2022-11-04T15:29:08;3.07;;;1.50;;
69323;SDS011;56470;47.350;8.718;2022-11-04T15:31:36;4.70;;;1.25;;
69323;SDS011;56470;47.350;8.718;2022-11-04T15:34:03;4.63;;;0.98;;
69323;SDS011;56470;47.350;8.718;2022-11-04T15:36:35;6.35;;;1.00;;
69323;SDS011;56470;47.350;8.718;2022-11-04T15:41:36;4.43;;;1.10;;
69323;SDS011;56470;47.350;8.718;2022-11-04T15:44:25;2.13;;;1.33;;
69323;SDS011;56470;47.350;8.718;2022-11-04T15:46:55;4.05;;;1.60;;
69323;SDS011;56470;47.350;8.718;2022-11-04T15:51:59;4.00;;;1.25;;
69323;SDS011;56470;47.350;8.718;2022-11-04T15:54:35;1.60;;;1.20;;
69323;SDS011;56470;47.350;8.718;2022-11-04T15:57:04;1.80;;;0.88;;
69323;SDS011;56470;47.350;8.718;2022-11-04T15:59:38;3.28;;;1.27;;
69323;SDS011;56470;47.350;8.718;2022-11-04T16:02:19;1.95;;;1.10;;
69323;SDS011;56470;47.350;8.718;2022-11-04T16:05:00;3.58;;;1.15;;
69323;SDS011;56470;47.350;8.718;2022-11-04T16:07:50;2.70;;;0.70;;
69323;SDS011;56470;47.350;8.718;2022-11-04T16:13:03;2.78;;;1.35;;
69323;SDS011;56470;47.350;8.718;2022-11-04T16:16:02;3.70;;;1.05;;
69323;SDS011;56470;47.350;8.718;2022-11-04T16:18:37;2.65;;;0.98;;
69323;SDS011;56470;47.350;8.718;2022-11-04T16:21:07;2.67;;;0.90;;
69323;SDS011;56470;47.350;8.718;2022-11-04T16:23:44;3.45;;;1.15;;
69323;SDS011;56470;47.350;8.718;2022-11-04T16:26:13;3.63;;;1.50;;
69323;SDS011;56470;47.350;8.718;2022-11-04T16:28:39;5.43;;;1.35;;
69323;SDS011;56470;47.350;8.718;2022-11-04T16:31:06;2.95;;;1.13;;
69323;SDS011;56470;47.350;8.718;2022-11-04T16:33:33;2.90;;;1.00;;
69323;SDS011;56470;47.350;8.718;2022-11-04T16:35:58;4.07;;;1.70;;
69323;SDS011;56470;47.350;8.718;2022-11-04T16:38:24;3.53;;;1.07;;
69323;SDS011;56470;47.350;8.718;2022-11-04T16:40:49;3.50;;;1.70;;
69323;SDS011;56470;47.350;8.718;2022-11-04T16:43:16;3.95;;;1.33;;
69323;SDS011;56470;47.350;8.718;2022-11-04T16:45:45;4.87;;;1.20;;
69323;SDS011;56470;47.350;8.718;2022-11-04T16:48:16;4.85;;;1.50;;
69323;SDS011;56470;47.350;8.718;2022-11-04T16:50:43;4.95;;;1.83;;
69323;SDS011;56470;47.350;8.718;2022-11-04T16:53:09;3.33;;;1.73;;
69323;SDS011;56470;47.350;8.718;2022-11-04T16:55:37;2.87;;;1.17;;
69323;SDS011;56470;47.350;8.718;2022-11-04T16:58:05;2.50;;;1.20;;
69323;SDS011;56470;47.350;8.718;2022-11-04T17:00:31;2.03;;;0.90;;
69323;SDS011;56470;47.350;8.718;2022-11-04T17:02:57;2.28;;;1.25;;
69323;SDS011;56470;47.350;8.718;2022-11-04T17:05:28;3.05;;;1.20;;
69323;SDS011;56470;47.350;8.718;2022-11-04T17:07:54;5.30;;;1.63;;
69323;SDS011;56470;47.350;8.718;2022-11-04T17:10:20;4.40;;;1.47;;
69323;SDS011;56470;47.350;8.718;2022-11-04T17:12:49;2.47;;;1.13;;
69323;SDS011;56470;47.350;8.718;2022-11-04T17:15:14;2.20;;;1.40;;
69323;SDS011;56470;47.350;8.718;2022-11-04T17:17:41;2.97;;;1.30;;
69323;SDS011;56470;47.350;8.718;2022-11-04T17:20:06;2.43;;;1.10;;
69323;SDS011;56470;47.350;8.718;2022-11-04T17:22:36;2.47;;;1.10;;
69323;SDS011;56470;47.350;8.718;2022-11-04T17:25:02;4.05;;;1.10;;
69323;SDS011;56470;47.350;8.718;2022-11-04T17:27:30;2.50;;;1.20;;
69323;SDS011;56470;47.350;8.718;2022-11-04T17:29:55;2.43;;;1.13;;
69323;SDS011;56470;47.350;8.718;2022-11-04T17:32:20;2.17;;;1.47;;
69323;SDS011;56470;47.350;8.718;2022-11-04T17:34:46;2.77;;;1.20;;
69323;SDS011;56470;47.350;8.718;2022-11-04T17:37:11;2.00;;;0.80;;
69323;SDS011;56470;47.350;8.718;2022-11-04T17:39:38;1.65;;;0.95;;
69323;SDS011;56470;47.350;8.718;2022-11-04T17:42:07;2.58;;;1.33;;
69323;SDS011;56470;47.350;8.718;2022-11-04T17:44:51;3.88;;;1.33;;
69323;SDS011;56470;47.350;8.718;2022-11-04T17:47:18;4.47;;;1.65;;
69323;SDS011;56470;47.350;8.718;2022-11-04T17:49:44;2.80;;;1.20;;
69323;SDS011;56470;47.350;8.718;2022-11-04T17:52:10;3.58;;;1.55;;
69323;SDS011;56470;47.350;8.718;2022-11-04T17:54:35;3.63;;;1.40;;
69323;SDS011;56470;47.350;8.718;2022-11-04T17:57:01;3.40;;;1.50;;
69323;SDS011;56470;47.350;8.718;2022-11-04T17:59:27;3.80;;;1.50;;
69323;SDS011;56470;47.350;8.718;2022-11-04T18:01:55;3.78;;;1.67;;
69323;SDS011;56470;47.350;8.718;2022-11-04T18:04:21;3.80;;;1.40;;